createdAt,value
2023-05-14T00:00:11.806Z,85.31
2023-05-14T00:01:11.866Z,85.31
2023-05-14T00:02:11.782Z,85.41
2023-05-14T00:03:12.141Z,85.52
2023-05-14T00:04:11.753Z,85.11
2023-05-14T00:05:11.578Z,85.11
2023-05-14T00:06:11.757Z,85.35
2023-05-14T00:07:11.774Z,85.25
2023-05-14T00:08:11.690Z,85.04
2023-05-14T00:09:11.693Z,85.04
2023-05-14T00:10:11.680Z,85.55
2023-05-14T00:11:11.691Z,85.97
2023-05-14T00:12:11.744Z,85.66
2023-05-14T00:13:11.660Z,85.25
2023-05-14T00:14:11.648Z,84.22
2023-05-14T00:15:11.632Z,85.04
2023-05-14T00:16:11.673Z,85.76
2023-05-14T00:17:11.597Z,86.07
2023-05-14T00:18:11.644Z,86.48
2023-05-14T00:19:11.634Z,86.68
2023-05-14T00:20:11.565Z,87.40
2023-05-14T00:21:11.554Z,86.99
2023-05-14T00:22:11.539Z,85.97
2023-05-14T00:23:11.384Z,86.38
2023-05-14T00:24:11.619Z,86.79
2023-05-14T00:25:11.541Z,86.89
2023-05-14T00:26:11.472Z,88.02
2023-05-14T00:27:11.486Z,87.61
2023-05-14T00:28:11.490Z,87.40
2023-05-14T00:29:11.563Z,87.10
2023-05-14T00:30:11.476Z,87.71
2023-05-14T00:31:11.603Z,87.92
2023-05-14T00:32:11.494Z,87.96
2023-05-14T00:33:11.574Z,88.06
2023-05-14T00:34:11.473Z,88.68
2023-05-14T00:35:11.457Z,88.37
2023-05-14T00:36:11.439Z,88.68
2023-05-14T00:37:11.435Z,87.75
2023-05-14T00:38:11.456Z,88.68
2023-05-14T00:39:11.513Z,88.78
2023-05-14T00:40:11.427Z,88.82
2023-05-14T00:41:11.409Z,88.57
2023-05-14T00:42:11.470Z,88.20
2023-05-14T00:43:11.369Z,88.20
2023-05-14T00:44:11.348Z,87.49
2023-05-14T00:45:11.357Z,88.00
2023-05-14T00:46:11.327Z,88.10
2023-05-14T00:47:11.284Z,88.41
2023-05-14T00:48:11.264Z,89.64
2023-05-14T00:49:11.349Z,89.44
2023-05-14T00:50:11.258Z,90.06
2023-05-14T00:51:11.259Z,89.95
2023-05-14T00:52:11.251Z,89.95
2023-05-14T00:53:11.332Z,89.75
2023-05-14T00:54:11.245Z,89.85
2023-05-14T00:55:11.299Z,89.85
2023-05-14T00:56:11.207Z,89.85
2023-05-14T00:57:11.192Z,89.85
2023-05-14T00:58:11.175Z,88.92
2023-05-14T00:59:11.152Z,88.66
2023-05-14T01:00:11.125Z,88.76
2023-05-14T01:01:11.288Z,89.17
2023-05-14T01:02:11.203Z,89.17
2023-05-14T01:03:11.244Z,88.96
2023-05-14T01:04:11.077Z,88.66
2023-05-14T01:05:11.124Z,89.69
2023-05-14T01:06:10.983Z,90.00
2023-05-14T01:07:11.113Z,90.51
2023-05-14T01:08:11.066Z,89.38
2023-05-14T01:09:11.086Z,89.58
2023-05-14T01:10:11.018Z,90.30
2023-05-14T01:11:11.113Z,90.30
2023-05-14T01:12:11.128Z,88.56
2023-05-14T01:13:11.138Z,89.73
2023-05-14T01:14:10.990Z,90.09
2023-05-14T01:15:11.011Z,89.22
2023-05-14T01:16:11.165Z,89.01
2023-05-14T01:17:10.998Z,89.11
2023-05-14T01:18:11.050Z,89.42
2023-05-14T01:19:11.030Z,89.31
2023-05-14T01:20:10.917Z,89.22
2023-05-14T01:21:10.903Z,89.42
2023-05-14T01:22:10.892Z,89.83
2023-05-14T01:23:10.816Z,89.52
2023-05-14T01:24:10.973Z,89.97
2023-05-14T01:25:10.893Z,89.77
2023-05-14T01:26:10.711Z,90.18
2023-05-14T01:27:10.863Z,89.46
2023-05-14T01:28:10.934Z,89.56
2023-05-14T01:29:10.853Z,89.67
2023-05-14T01:30:10.761Z,90.18
2023-05-14T01:31:10.826Z,90.49
2023-05-14T01:32:10.897Z,89.97
2023-05-14T01:33:10.899Z,90.49
2023-05-14T01:34:10.809Z,90.18
2023-05-14T01:35:10.798Z,90.28
2023-05-14T01:36:10.797Z,91.11
2023-05-14T01:37:10.787Z,91.52
2023-05-14T01:38:10.794Z,91.42
2023-05-14T01:39:10.715Z,90.39
2023-05-14T01:40:10.822Z,91.11
2023-05-14T01:41:10.709Z,90.59
2023-05-14T01:42:10.702Z,90.49
2023-05-14T01:43:10.721Z,90.80
2023-05-14T01:44:10.780Z,90.69
2023-05-14T01:45:10.720Z,90.80
2023-05-14T01:46:10.731Z,91.42
2023-05-14T01:47:10.689Z,91.83
2023-05-14T01:48:10.860Z,91.83
2023-05-14T01:49:10.620Z,91.00
2023-05-14T01:50:10.718Z,90.69
2023-05-14T01:51:10.706Z,90.59
2023-05-14T01:52:10.574Z,90.49
2023-05-14T01:53:10.582Z,90.49
2023-05-14T01:54:10.567Z,91.00
2023-05-14T01:55:10.479Z,91.11
2023-05-14T01:56:10.560Z,91.83
2023-05-14T01:57:10.564Z,91.62
2023-05-14T01:58:10.573Z,91.05
2023-05-14T01:59:10.499Z,90.94
2023-05-14T02:00:10.400Z,90.84
2023-05-14T02:01:10.557Z,91.97
2023-05-14T02:02:10.466Z,92.08
2023-05-14T02:03:10.529Z,91.46
2023-05-14T02:04:10.580Z,91.15
2023-05-14T02:05:10.644Z,91.05
2023-05-14T02:06:10.659Z,90.73
2023-05-14T02:07:10.505Z,90.64
2023-05-14T02:08:10.518Z,90.64
2023-05-14T02:09:10.326Z,90.43
2023-05-14T02:10:10.448Z,90.22
2023-05-14T02:11:10.390Z,90.22
2023-05-14T02:12:10.463Z,90.94
2023-05-14T02:13:10.375Z,90.94
2023-05-14T02:14:10.374Z,91.77
2023-05-14T02:15:10.371Z,92.69
2023-05-14T02:16:10.406Z,93.11
2023-05-14T02:17:10.442Z,92.90
2023-05-14T02:18:10.252Z,92.90
2023-05-14T02:19:10.398Z,92.90
2023-05-14T02:20:10.355Z,92.38
2023-05-14T02:21:10.364Z,92.18
2023-05-14T02:22:10.269Z,92.02
2023-05-14T02:23:10.369Z,91.87
2023-05-14T02:24:10.258Z,92.29
2023-05-14T02:25:10.279Z,91.71
2023-05-14T02:26:10.229Z,92.22
2023-05-14T02:27:10.241Z,92.22
2023-05-14T02:28:10.326Z,91.60
2023-05-14T02:29:10.240Z,91.71
2023-05-14T02:30:10.324Z,91.71
2023-05-14T02:31:10.180Z,91.60
2023-05-14T02:32:10.229Z,91.91
2023-05-14T02:33:10.374Z,92.43
2023-05-14T02:34:10.165Z,92.43
2023-05-14T02:35:10.179Z,92.33
2023-05-14T02:36:10.178Z,91.91
2023-05-14T02:37:10.100Z,91.81
2023-05-14T02:38:10.174Z,92.33
2023-05-14T02:39:10.174Z,92.22
2023-05-14T02:40:10.119Z,92.33
2023-05-14T02:41:10.112Z,92.43
2023-05-14T02:42:10.116Z,92.53
2023-05-14T02:43:10.112Z,92.63
2023-05-14T02:44:10.032Z,92.63
2023-05-14T02:45:10.039Z,92.63
2023-05-14T02:46:10.045Z,92.43
2023-05-14T02:47:10.151Z,92.33
2023-05-14T02:48:10.199Z,92.74
2023-05-14T02:49:10.001Z,92.74
2023-05-14T02:50:10.026Z,92.12
2023-05-14T02:51:09.885Z,91.71
2023-05-14T02:52:10.049Z,92.02
2023-05-14T02:53:09.901Z,92.33
2023-05-14T02:54:09.985Z,92.94
2023-05-14T02:55:09.989Z,92.84
2023-05-14T02:56:09.914Z,92.94
2023-05-14T02:57:09.994Z,93.25
2023-05-14T02:58:09.911Z,93.46
2023-05-14T02:59:09.930Z,93.56
2023-05-14T03:00:09.807Z,93.87
2023-05-14T03:01:09.774Z,93.77
2023-05-14T03:02:10.012Z,93.98
2023-05-14T03:03:09.915Z,93.87
2023-05-14T03:04:09.898Z,93.87
2023-05-14T03:05:09.622Z,93.87
2023-05-14T03:06:09.901Z,93.66
2023-05-14T03:07:09.898Z,93.35
2023-05-14T03:08:09.841Z,93.15
2023-05-14T03:09:09.838Z,93.30
2023-05-14T03:10:09.838Z,93.56
2023-05-14T03:11:09.861Z,93.30
2023-05-14T03:12:09.755Z,92.78
2023-05-14T03:13:09.705Z,92.68
2023-05-14T03:14:09.706Z,92.88
2023-05-14T03:15:09.719Z,93.09
2023-05-14T03:16:09.762Z,93.19
2023-05-14T03:17:09.826Z,93.19
2023-05-14T03:18:09.670Z,92.78
2023-05-14T03:19:09.869Z,92.57
2023-05-14T03:20:09.612Z,92.37
2023-05-14T03:21:09.557Z,92.16
2023-05-14T03:22:09.724Z,92.68
2023-05-14T03:23:09.640Z,93.13
2023-05-14T03:24:09.561Z,93.24
2023-05-14T03:25:09.626Z,93.30
2023-05-14T03:26:09.550Z,93.30
2023-05-14T03:27:09.557Z,92.99
2023-05-14T03:28:09.625Z,93.81
2023-05-14T03:29:09.543Z,93.81
2023-05-14T03:30:09.594Z,92.99
2023-05-14T03:31:09.541Z,92.78
2023-05-14T03:32:09.521Z,92.68
2023-05-14T03:33:09.483Z,92.88
2023-05-14T03:34:09.545Z,93.40
2023-05-14T03:35:09.306Z,93.19
2023-05-14T03:36:09.428Z,92.78
2023-05-14T03:37:09.428Z,92.57
2023-05-14T03:38:09.482Z,93.60
2023-05-14T03:39:09.516Z,93.60
2023-05-14T03:40:09.359Z,93.50
2023-05-14T03:41:09.407Z,92.99
2023-05-14T03:42:09.396Z,93.09
2023-05-14T03:43:09.392Z,92.99
2023-05-14T03:44:09.372Z,92.78
2023-05-14T03:45:09.282Z,93.09
2023-05-14T03:46:09.364Z,92.99
2023-05-14T03:47:09.426Z,92.68
2023-05-14T03:48:09.516Z,93.60
2023-05-14T03:49:09.346Z,94.23
2023-05-14T03:50:09.327Z,94.53
2023-05-14T03:51:09.318Z,94.59
2023-05-14T03:52:09.326Z,94.49
2023-05-14T03:53:09.314Z,94.28
2023-05-14T03:54:09.296Z,94.18
2023-05-14T03:55:09.252Z,93.93
2023-05-14T03:56:09.278Z,93.62
2023-05-14T03:57:09.355Z,93.06
2023-05-14T03:58:09.084Z,92.55
2023-05-14T03:59:09.217Z,91.99
2023-05-14T04:00:09.175Z,90.55
2023-05-14T04:01:09.191Z,90.09
2023-05-14T04:02:09.017Z,89.28
2023-05-14T04:03:09.101Z,88.72
2023-05-14T04:04:09.313Z,87.79
2023-05-14T04:05:09.245Z,87.49
2023-05-14T04:06:09.159Z,86.46
2023-05-14T04:07:09.166Z,86.56
2023-05-14T04:08:09.175Z,86.52
2023-05-14T04:09:09.165Z,86.21
2023-05-14T04:10:09.153Z,85.35
2023-05-14T04:11:08.943Z,85.25
2023-05-14T04:12:09.196Z,84.80
2023-05-14T04:13:09.174Z,84.49
2023-05-14T04:14:09.058Z,83.63
2023-05-14T04:15:09.020Z,82.67
2023-05-14T04:16:09.110Z,82.22
2023-05-14T04:17:09.128Z,82.12
2023-05-14T04:18:09.068Z,82.08
2023-05-14T04:19:09.090Z,81.36
2023-05-14T04:20:09.007Z,80.60
2023-05-14T04:21:08.988Z,79.34
2023-05-14T04:22:09.050Z,78.38
2023-05-14T04:23:09.025Z,78.24
2023-05-14T04:24:09.025Z,78.31
2023-05-14T04:25:08.996Z,77.19
2023-05-14T04:26:08.989Z,75.82
2023-05-14T04:27:08.904Z,75.68
2023-05-14T04:28:08.980Z,74.93
2023-05-14T04:29:08.881Z,73.88
2023-05-14T04:30:08.865Z,72.31
2023-05-14T04:31:08.882Z,71.36
2023-05-14T04:32:08.888Z,70.72
2023-05-14T04:33:08.924Z,70.38
2023-05-14T04:34:08.900Z,69.53
2023-05-14T04:35:08.962Z,68.48
2023-05-14T04:36:08.860Z,68.14
2023-05-14T04:37:08.856Z,67.33
2023-05-14T04:38:08.841Z,67.10
2023-05-14T04:39:08.854Z,66.66
2023-05-14T04:40:08.853Z,66.25
2023-05-14T04:41:08.843Z,65.10
2023-05-14T04:42:08.803Z,64.76
2023-05-14T04:43:08.794Z,64.56
2023-05-14T04:44:08.797Z,63.92
2023-05-14T04:45:08.819Z,63.62
2023-05-14T04:46:08.767Z,63.21
2023-05-14T04:47:08.721Z,63.11
2023-05-14T04:48:08.821Z,62.48
2023-05-14T04:49:08.713Z,62.68
2023-05-14T04:50:08.784Z,62.75
2023-05-14T04:51:08.791Z,62.54
2023-05-14T04:52:08.639Z,62.21
2023-05-14T04:53:08.641Z,61.68
2023-05-14T04:54:08.632Z,60.84
2023-05-14T04:55:08.608Z,59.70
2023-05-14T04:56:08.597Z,59.19
2023-05-14T04:57:08.659Z,58.76
2023-05-14T04:58:08.591Z,57.82
2023-05-14T04:59:08.593Z,57.72
2023-05-14T05:00:08.608Z,56.98
2023-05-14T05:01:08.692Z,56.65
2023-05-14T05:02:08.574Z,56.52
2023-05-14T05:03:08.688Z,55.59
2023-05-14T05:04:08.648Z,55.29
2023-05-14T05:05:08.515Z,54.66
2023-05-14T05:06:08.559Z,54.43
2023-05-14T05:07:08.629Z,53.60
2023-05-14T05:08:08.546Z,53.50
2023-05-14T05:09:08.536Z,53.80
2023-05-14T05:10:08.538Z,53.07
2023-05-14T05:11:08.525Z,52.44
2023-05-14T05:12:08.605Z,51.81
2023-05-14T05:13:08.593Z,51.89
2023-05-14T05:14:08.521Z,50.98
2023-05-14T05:15:08.441Z,50.56
2023-05-14T05:16:08.497Z,50.23
2023-05-14T05:17:08.463Z,49.71
2023-05-14T05:18:08.560Z,49.88
2023-05-14T05:19:08.477Z,49.40
2023-05-14T05:20:08.279Z,49.40
2023-05-14T05:21:08.260Z,49.38
2023-05-14T05:22:08.323Z,49.26
2023-05-14T05:23:08.471Z,48.33
2023-05-14T05:24:08.233Z,48.05
2023-05-14T05:25:08.374Z,48.23
2023-05-14T05:26:08.360Z,47.41
2023-05-14T05:27:08.364Z,46.91
2023-05-14T05:28:08.431Z,47.31
2023-05-14T05:29:08.364Z,47.20
2023-05-14T05:30:08.391Z,47.31
2023-05-14T05:31:08.438Z,47.71
2023-05-14T05:32:08.241Z,47.28
2023-05-14T05:33:08.133Z,47.08
2023-05-14T05:34:08.365Z,46.84
2023-05-14T05:35:08.291Z,46.34
2023-05-14T05:36:08.222Z,46.14
2023-05-14T05:37:08.128Z,45.64
2023-05-14T05:38:08.135Z,46.09
2023-05-14T05:39:08.054Z,44.57
2023-05-14T05:40:08.240Z,44.45
2023-05-14T05:41:08.005Z,43.85
2023-05-14T05:42:08.023Z,44.59
2023-05-14T05:43:08.174Z,44.20
2023-05-14T05:44:08.087Z,44.78
2023-05-14T05:45:08.149Z,43.75
2023-05-14T05:46:08.124Z,43.71
2023-05-14T05:47:07.935Z,42.10
2023-05-14T05:48:07.981Z,42.33
2023-05-14T05:49:07.936Z,43.25
2023-05-14T05:50:07.980Z,42.83
2023-05-14T05:51:08.161Z,43.48
2023-05-14T05:52:07.897Z,43.87
2023-05-14T05:53:08.041Z,43.67
2023-05-14T05:54:07.878Z,43.98
2023-05-14T05:55:07.909Z,42.85
2023-05-14T05:56:08.037Z,43.57
2023-05-14T05:57:07.941Z,44.07
2023-05-14T05:58:07.863Z,43.87
2023-05-14T05:59:07.981Z,44.42
2023-05-14T06:00:07.981Z,44.47
2023-05-14T06:01:08.006Z,44.25
2023-05-14T06:02:07.994Z,44.11
2023-05-14T06:03:07.958Z,42.55
2023-05-14T06:04:08.140Z,41.02
2023-05-14T06:05:08.074Z,40.62
2023-05-14T06:06:08.016Z,41.33
2023-05-14T06:07:07.972Z,41.83
2023-05-14T06:08:08.090Z,41.96
2023-05-14T06:09:07.963Z,41.53
2023-05-14T06:10:08.000Z,41.66
2023-05-14T06:11:07.889Z,43.23
2023-05-14T06:12:08.011Z,45.50
2023-05-14T06:13:07.693Z,45.57
2023-05-14T06:14:07.795Z,45.50
2023-05-14T06:15:07.690Z,45.81
2023-05-14T06:16:07.904Z,46.09
2023-05-14T06:17:07.785Z,45.87
2023-05-14T06:18:07.915Z,46.84
2023-05-14T06:19:07.872Z,46.92
2023-05-14T06:20:07.734Z,45.85
2023-05-14T06:21:07.755Z,44.37
2023-05-14T06:22:07.834Z,43.13
2023-05-14T06:23:07.845Z,40.78
2023-05-14T06:24:07.592Z,40.44
2023-05-14T06:25:07.613Z,39.90
2023-05-14T06:26:07.568Z,38.17
2023-05-14T06:27:07.725Z,36.92
2023-05-14T06:28:07.571Z,36.11
2023-05-14T06:29:07.557Z,35.88
2023-05-14T06:30:07.725Z,35.47
2023-05-14T06:31:07.563Z,34.64
2023-05-14T06:32:07.788Z,33.54
2023-05-14T06:33:07.645Z,34.18
2023-05-14T06:34:07.656Z,34.67
2023-05-14T06:35:07.693Z,33.97
2023-05-14T06:36:07.649Z,33.85
2023-05-14T06:37:07.450Z,33.56
2023-05-14T06:38:07.532Z,33.84
2023-05-14T06:39:07.437Z,32.16
2023-05-14T06:40:07.628Z,33.44
2023-05-14T06:41:07.447Z,32.93
2023-05-14T06:42:07.419Z,33.15
2023-05-14T06:43:07.469Z,32.75
2023-05-14T06:44:07.599Z,32.26
2023-05-14T06:45:07.548Z,31.93
2023-05-14T06:46:07.551Z,32.23
2023-05-14T06:47:07.510Z,31.06
2023-05-14T06:48:07.546Z,31.56
2023-05-14T06:49:07.562Z,31.75
2023-05-14T06:50:09.443Z,31.75
2023-05-14T06:51:07.484Z,33.06
2023-05-14T06:52:07.424Z,35.41
2023-05-14T06:53:07.328Z,35.69
2023-05-14T06:54:07.408Z,35.14
2023-05-14T06:55:07.515Z,34.73
2023-05-14T06:56:07.418Z,33.80
2023-05-14T06:57:07.367Z,33.59
2023-05-14T06:58:07.223Z,33.49
2023-05-14T06:59:07.403Z,33.29
2023-05-14T07:00:07.431Z,35.16
2023-05-14T07:01:07.447Z,35.24
2023-05-14T07:02:07.376Z,35.63
2023-05-14T07:03:07.416Z,34.66
2023-05-14T07:04:07.392Z,35.63
2023-05-14T07:05:07.357Z,35.12
2023-05-14T07:06:07.396Z,34.86
2023-05-14T07:07:07.332Z,36.07
2023-05-14T07:08:07.349Z,35.27
2023-05-14T07:09:07.243Z,35.31
2023-05-14T07:10:07.181Z,36.02
2023-05-14T07:11:07.289Z,35.41
2023-05-14T07:12:07.284Z,35.22
2023-05-14T07:13:07.199Z,35.42
2023-05-14T07:14:07.093Z,35.42
2023-05-14T07:15:07.543Z,35.85
2023-05-14T07:16:07.241Z,37.30
2023-05-14T07:17:07.337Z,38.49
2023-05-14T07:18:07.182Z,37.92
2023-05-14T07:19:07.209Z,39.01
2023-05-14T07:20:06.985Z,39.78
2023-05-14T07:21:06.989Z,41.83
2023-05-14T07:22:07.084Z,41.09
2023-05-14T07:23:07.013Z,42.02
2023-05-14T07:24:07.158Z,40.88
2023-05-14T07:25:07.001Z,40.24
2023-05-14T07:26:06.975Z,38.69
2023-05-14T07:27:07.204Z,37.56
2023-05-14T07:28:07.140Z,37.30
2023-05-14T07:29:07.083Z,36.38
2023-05-14T07:30:07.055Z,36.32
2023-05-14T07:31:07.052Z,36.30
2023-05-14T07:32:07.184Z,36.22
2023-05-14T07:33:07.222Z,36.11
2023-05-14T07:34:07.220Z,36.30
2023-05-14T07:35:07.140Z,35.88
2023-05-14T07:36:06.863Z,35.16
2023-05-14T07:37:06.965Z,36.20
2023-05-14T07:38:07.060Z,36.90
2023-05-14T07:39:07.078Z,34.41
2023-05-14T07:40:07.103Z,32.28
2023-05-14T07:41:06.961Z,31.41
2023-05-14T07:42:06.932Z,30.02
2023-05-14T07:43:07.051Z,30.47
2023-05-14T07:44:06.866Z,31.16
2023-05-14T07:45:06.856Z,30.57
2023-05-14T07:46:06.957Z,30.57
2023-05-14T07:47:07.026Z,30.76
2023-05-14T07:48:06.963Z,30.26
2023-05-14T07:49:06.905Z,30.21
2023-05-14T07:50:06.880Z,28.79
2023-05-14T07:51:07.058Z,27.98
2023-05-14T07:52:06.841Z,26.37
2023-05-14T07:53:06.827Z,27.28
2023-05-14T07:54:06.816Z,27.40
2023-05-14T07:55:06.681Z,27.18
2023-05-14T07:56:06.967Z,26.65
2023-05-14T07:57:06.773Z,26.86
2023-05-14T07:58:06.692Z,26.84
2023-05-14T07:59:06.767Z,26.72
2023-05-14T08:00:06.850Z,26.95
2023-05-14T08:01:06.691Z,27.54
2023-05-14T08:02:06.970Z,30.04
2023-05-14T08:03:06.968Z,30.75
2023-05-14T08:04:06.923Z,30.10
2023-05-14T08:05:06.747Z,30.78
2023-05-14T08:06:06.760Z,31.98
2023-05-14T08:07:06.895Z,31.11
2023-05-14T08:08:06.735Z,28.67
2023-05-14T08:09:06.700Z,27.23
2023-05-14T08:10:06.685Z,26.61
2023-05-14T08:11:06.703Z,26.20
2023-05-14T08:12:06.517Z,25.29
2023-05-14T08:13:06.799Z,25.08
2023-05-14T08:14:06.701Z,24.67
2023-05-14T08:15:06.645Z,23.29
2023-05-14T08:16:06.512Z,23.35
2023-05-14T08:17:06.699Z,25.46
2023-05-14T08:18:06.633Z,25.35
2023-05-14T08:19:06.594Z,24.84
2023-05-14T08:20:06.681Z,25.32
2023-05-14T08:21:06.645Z,25.04
2023-05-14T08:22:06.679Z,24.38
2023-05-14T08:23:06.510Z,24.66
2023-05-14T08:24:06.562Z,24.07
2023-05-14T08:25:06.540Z,23.65
2023-05-14T08:26:06.541Z,24.16
2023-05-14T08:27:06.612Z,25.11
2023-05-14T08:28:06.536Z,26.64
2023-05-14T08:29:07.469Z,27.66
2023-05-14T08:30:06.544Z,28.66
2023-05-14T08:31:06.610Z,29.46
2023-05-14T08:32:15.929Z,29.97
2023-05-14T08:33:06.527Z,30.79
2023-05-14T08:34:06.587Z,30.79
2023-05-14T08:35:06.515Z,30.09
2023-05-14T08:36:06.504Z,29.19
2023-05-14T08:37:06.512Z,29.61
2023-05-14T08:38:06.499Z,29.61
2023-05-14T08:39:06.495Z,30.10
2023-05-14T08:40:06.606Z,31.12
2023-05-14T08:41:06.488Z,31.22
2023-05-14T08:42:06.459Z,30.57
2023-05-14T08:43:06.394Z,29.76
2023-05-14T08:44:06.450Z,31.12
2023-05-14T08:45:06.426Z,33.21
2023-05-14T08:46:06.448Z,33.49
2023-05-14T08:47:06.461Z,33.57
2023-05-14T08:48:06.491Z,34.30
2023-05-14T08:49:06.301Z,34.56
2023-05-14T08:50:06.413Z,33.13
2023-05-14T08:51:06.312Z,32.07
2023-05-14T08:52:06.197Z,29.92
2023-05-14T08:53:06.367Z,29.02
2023-05-14T08:54:06.284Z,28.83
2023-05-14T08:55:06.418Z,30.48
2023-05-14T08:56:06.398Z,31.48
2023-05-14T08:57:06.330Z,31.90
2023-05-14T08:58:06.327Z,30.58
2023-05-14T08:59:06.266Z,29.68
2023-05-14T09:00:06.295Z,30.40
2023-05-14T09:01:06.331Z,32.06
2023-05-14T09:02:06.580Z,34.89
2023-05-14T09:03:06.313Z,33.85
2023-05-14T09:04:06.342Z,33.01
2023-05-14T09:05:06.177Z,32.78
2023-05-14T09:06:06.094Z,31.26
2023-05-14T09:07:06.244Z,29.92
2023-05-14T09:08:06.192Z,28.89
2023-05-14T09:09:06.214Z,28.64
2023-05-14T09:10:06.253Z,30.78
2023-05-14T09:11:06.177Z,32.19
2023-05-14T09:12:06.190Z,33.65
2023-05-14T09:13:06.246Z,34.59
2023-05-14T09:14:06.168Z,35.19
2023-05-14T09:15:06.173Z,34.34
2023-05-14T09:16:06.111Z,34.12
2023-05-14T09:17:06.114Z,32.40
2023-05-14T09:18:06.537Z,31.04
2023-05-14T09:19:06.097Z,30.34
2023-05-14T09:20:05.926Z,29.79
2023-05-14T09:21:05.958Z,29.00
2023-05-14T09:22:05.890Z,28.30
2023-05-14T09:23:05.927Z,28.93
2023-05-14T09:24:05.916Z,30.48
2023-05-14T09:25:05.920Z,30.99
2023-05-14T09:26:05.966Z,31.48
2023-05-14T09:27:06.034Z,32.25
2023-05-14T09:28:06.092Z,32.27
2023-05-14T09:29:06.072Z,31.63
2023-05-14T09:30:05.979Z,28.77
2023-05-14T09:31:06.024Z,28.70
2023-05-14T09:32:06.028Z,27.91
2023-05-14T09:33:05.881Z,28.12
2023-05-14T09:34:06.053Z,28.69
2023-05-14T09:35:05.958Z,28.59
2023-05-14T09:36:05.962Z,26.87
2023-05-14T09:37:05.973Z,27.71
2023-05-14T09:38:06.024Z,29.44
2023-05-14T09:39:06.022Z,29.39
2023-05-14T09:40:05.804Z,31.13
2023-05-14T09:41:05.888Z,32.37
2023-05-14T09:42:05.850Z,33.49
2023-05-14T09:43:05.903Z,34.33
2023-05-14T09:44:06.726Z,35.54
2023-05-14T09:45:05.926Z,37.06
2023-05-14T09:46:05.873Z,36.78
2023-05-14T09:47:05.905Z,36.96
2023-05-14T09:48:05.840Z,36.45
2023-05-14T09:49:05.815Z,36.02
2023-05-14T09:50:05.699Z,36.02
2023-05-14T09:51:05.703Z,35.72
2023-05-14T09:52:05.819Z,35.50
2023-05-14T09:53:05.713Z,35.49
2023-05-14T09:54:05.716Z,34.89
2023-05-14T09:55:05.680Z,35.26
2023-05-14T09:56:05.658Z,35.85
2023-05-14T09:57:05.661Z,35.42
2023-05-14T09:58:05.645Z,34.83
2023-05-14T09:59:05.609Z,33.89
2023-05-14T10:00:05.566Z,32.64
2023-05-14T10:01:05.825Z,31.65
2023-05-14T10:02:05.793Z,32.53
2023-05-14T10:03:05.756Z,32.04
2023-05-14T10:04:05.732Z,34.53
2023-05-14T10:05:05.650Z,35.67
2023-05-14T10:06:05.518Z,36.36
2023-05-14T10:07:05.708Z,36.66
2023-05-14T10:08:05.643Z,36.88
2023-05-14T10:09:05.608Z,38.28
2023-05-14T10:10:05.621Z,37.48
2023-05-14T10:11:05.562Z,37.81
2023-05-14T10:12:05.747Z,39.12
2023-05-14T10:13:05.607Z,40.26
2023-05-14T10:14:05.557Z,41.19
2023-05-14T10:15:05.461Z,42.13
2023-05-14T10:16:05.620Z,41.85
2023-05-14T10:17:05.690Z,41.55
2023-05-14T10:18:05.399Z,41.85
2023-05-14T10:19:05.469Z,41.41
2023-05-14T10:20:05.592Z,40.62
2023-05-14T10:21:05.430Z,40.20
2023-05-14T10:22:05.423Z,40.44
2023-05-14T10:23:05.634Z,41.52
2023-05-14T10:24:05.553Z,40.62
2023-05-14T10:25:05.552Z,41.52
2023-05-14T10:26:05.436Z,40.40
2023-05-14T10:27:05.507Z,40.40
2023-05-14T10:28:05.580Z,40.72
2023-05-14T10:29:05.469Z,40.94
2023-05-14T10:30:05.338Z,40.83
2023-05-14T10:31:05.443Z,41.44
2023-05-14T10:32:05.448Z,41.19
2023-05-14T10:33:05.531Z,40.26
2023-05-14T10:34:05.536Z,39.56
2023-05-14T10:35:05.316Z,40.59
2023-05-14T10:36:05.362Z,41.63
2023-05-14T10:37:05.274Z,41.36
2023-05-14T10:38:05.292Z,42.21
2023-05-14T10:39:05.370Z,40.89
2023-05-14T10:40:05.353Z,40.84
2023-05-14T10:41:05.282Z,38.43
2023-05-14T10:42:05.262Z,36.58
2023-05-14T10:43:05.180Z,35.72
2023-05-14T10:44:05.108Z,35.50
2023-05-14T10:45:05.246Z,33.34
2023-05-14T10:46:05.263Z,32.01
2023-05-14T10:47:05.137Z,31.62
2023-05-14T10:48:05.309Z,31.51
2023-05-14T10:49:05.307Z,31.45
2023-05-14T10:50:05.201Z,29.74
2023-05-14T10:51:05.037Z,28.66
2023-05-14T10:52:05.168Z,30.27
2023-05-14T10:53:05.163Z,30.10
2023-05-14T10:54:05.152Z,30.37
2023-05-14T10:55:05.143Z,31.59
2023-05-14T10:56:05.214Z,32.20
2023-05-14T10:57:05.038Z,32.50
2023-05-14T10:58:04.940Z,32.60
2023-05-14T10:59:05.188Z,33.09
2023-05-14T11:00:04.979Z,33.19
2023-05-14T11:01:05.279Z,33.52
2023-05-14T11:02:05.240Z,34.64
2023-05-14T11:03:05.042Z,34.45
2023-05-14T11:04:05.038Z,34.55
2023-05-14T11:05:05.064Z,35.67
2023-05-14T11:06:04.922Z,36.29
2023-05-14T11:07:05.001Z,36.60
2023-05-14T11:08:04.960Z,36.64
2023-05-14T11:09:05.026Z,38.07
2023-05-14T11:10:04.831Z,38.31
2023-05-14T11:11:05.088Z,38.59
2023-05-14T11:12:05.105Z,38.86
2023-05-14T11:13:04.831Z,38.18
2023-05-14T11:14:04.806Z,39.82
2023-05-14T11:15:04.795Z,40.23
2023-05-14T11:16:18.975Z,40.04
2023-05-14T11:17:04.862Z,39.84
2023-05-14T11:18:04.915Z,40.14
2023-05-14T11:19:04.801Z,40.04
2023-05-14T11:20:04.759Z,39.52
2023-05-14T11:21:04.764Z,39.64
2023-05-14T11:22:04.790Z,40.58
2023-05-14T11:23:04.705Z,41.19
2023-05-14T11:24:04.857Z,40.80
2023-05-14T11:25:04.875Z,40.39
2023-05-14T11:26:04.869Z,41.39
2023-05-14T11:27:04.920Z,41.02
2023-05-14T11:28:04.817Z,42.03
2023-05-14T11:29:04.798Z,43.04
2023-05-14T11:30:04.726Z,43.32
2023-05-14T11:31:04.783Z,42.99
2023-05-14T11:32:04.899Z,43.29
2023-05-14T11:33:06.919Z,43.70
2023-05-14T11:34:05.394Z,44.01
2023-05-14T11:35:05.026Z,44.84
2023-05-14T11:36:05.056Z,45.78
2023-05-14T11:37:04.721Z,47.31
2023-05-14T11:38:05.151Z,47.19
2023-05-14T11:39:04.700Z,48.11
2023-05-14T11:40:04.636Z,47.61
2023-05-14T11:41:04.730Z,48.43
2023-05-14T11:42:04.727Z,48.46
2023-05-14T11:43:04.641Z,47.45
2023-05-14T11:44:05.095Z,46.93
2023-05-14T11:45:04.704Z,45.83
2023-05-14T11:46:04.724Z,46.85
2023-05-14T11:47:04.552Z,47.23
2023-05-14T11:48:04.549Z,47.20
2023-05-14T11:49:04.496Z,45.70
2023-05-14T11:50:04.513Z,46.20
2023-05-14T11:51:04.504Z,45.48
2023-05-14T11:52:04.439Z,44.88
2023-05-14T11:53:04.457Z,45.58
2023-05-14T11:54:04.429Z,44.35
2023-05-14T11:55:04.402Z,42.55
2023-05-14T11:56:04.474Z,43.43
2023-05-14T11:57:04.505Z,42.63
2023-05-14T11:58:04.417Z,42.11
2023-05-14T11:59:04.473Z,42.52
2023-05-14T12:00:04.469Z,42.29
2023-05-14T12:01:04.362Z,42.49
2023-05-14T12:02:04.422Z,40.30
2023-05-14T12:03:04.573Z,41.19
2023-05-14T12:04:04.429Z,40.78
2023-05-14T12:05:04.398Z,39.79
2023-05-14T12:06:04.360Z,40.58
2023-05-14T12:07:04.331Z,38.36
2023-05-14T12:08:04.265Z,38.74
2023-05-14T12:09:04.268Z,38.52
2023-05-14T12:10:04.235Z,40.70
2023-05-14T12:11:04.241Z,38.52
2023-05-14T12:12:04.231Z,37.81
2023-05-14T12:13:04.200Z,38.10
2023-05-14T12:14:04.185Z,38.29
2023-05-14T12:15:04.204Z,38.07
2023-05-14T12:16:04.318Z,38.35
2023-05-14T12:17:04.182Z,36.24
2023-05-14T12:18:08.381Z,35.54
2023-05-14T12:19:04.173Z,36.90
2023-05-14T12:20:04.209Z,36.04
2023-05-14T12:21:04.129Z,36.37
2023-05-14T12:22:04.182Z,36.97
2023-05-14T12:23:04.167Z,36.39
2023-05-14T12:24:04.112Z,38.76
2023-05-14T12:25:04.113Z,36.87
2023-05-14T12:26:04.081Z,37.75
2023-05-14T12:27:04.136Z,37.83
2023-05-14T12:28:04.265Z,39.62
2023-05-14T12:29:04.186Z,40.00
2023-05-14T12:30:20.019Z,37.41
2023-05-14T12:31:04.268Z,37.00
2023-05-14T12:32:04.144Z,37.20
2023-05-14T12:33:04.246Z,38.18
2023-05-14T12:34:04.189Z,36.08
2023-05-14T12:35:03.993Z,36.58
2023-05-14T12:36:20.625Z,36.70
2023-05-14T12:37:04.130Z,36.72
2023-05-14T12:38:04.144Z,35.72
2023-05-14T12:39:04.157Z,36.22
2023-05-14T12:40:04.102Z,38.21
2023-05-14T12:41:03.965Z,38.71
2023-05-14T12:42:04.128Z,36.52
2023-05-14T12:43:03.970Z,36.22
2023-05-14T12:44:04.046Z,37.51
2023-05-14T12:45:03.886Z,40.30
2023-05-14T12:46:03.900Z,39.21
2023-05-14T12:47:03.928Z,38.91
2023-05-14T12:48:03.973Z,36.52
2023-05-14T12:49:03.909Z,37.02
2023-05-14T12:50:03.873Z,37.73
2023-05-14T12:51:03.857Z,38.56
2023-05-14T12:52:19.835Z,39.95